createdAt,value
2019-03-24T00:00:28.538Z,6.90
2019-03-24T00:02:58.841Z,6.80
2019-03-24T00:05:32.022Z,6.80
2019-03-24T00:08:02.261Z,6.80
2019-03-24T00:10:34.777Z,6.70
2019-03-24T00:13:11.199Z,6.80
2019-03-24T00:15:49.920Z,6.70
2019-03-24T00:18:21.215Z,6.70
2019-03-24T00:20:54.877Z,6.60
2019-03-24T00:23:26.438Z,6.60
2019-03-24T00:26:01.073Z,6.50
2019-03-24T00:28:32.848Z,6.50
2019-03-24T00:31:03.257Z,6.50
2019-03-24T00:33:33.659Z,6.40
2019-03-24T00:36:03.950Z,6.40
2019-03-24T00:38:37.817Z,6.40
2019-03-24T00:41:11.040Z,6.30
2019-03-24T00:43:41.248Z,6.30
2019-03-24T00:46:12.167Z,6.20
2019-03-24T00:48:42.566Z,6.20
2019-03-24T00:51:17.417Z,6.20
2019-03-24T00:53:52.029Z,6.10
2019-03-24T00:56:22.358Z,6.10
2019-03-24T00:58:55.438Z,6.10
2019-03-24T01:01:29.494Z,6.10
2019-03-24T01:04:01.575Z,6.10
2019-03-24T01:06:31.977Z,6.00
2019-03-24T01:09:03.468Z,6.00
2019-03-24T01:11:34.927Z,6.00
2019-03-24T01:14:08.498Z,5.90
2019-03-24T01:16:39.390Z,5.90
2019-03-24T01:19:10.657Z,6.00
2019-03-24T01:21:41.437Z,5.90
2019-03-24T01:24:17.361Z,5.90
2019-03-24T01:26:47.548Z,5.90
2019-03-24T01:29:24.028Z,6.00
2019-03-24T01:31:54.293Z,6.10
2019-03-24T01:34:24.761Z,6.10
2019-03-24T01:36:58.515Z,6.10
2019-03-24T01:39:38.293Z,6.20
2019-03-24T01:42:10.821Z,6.20
2019-03-24T01:44:41.347Z,6.20
2019-03-24T01:47:13.061Z,6.20
2019-03-24T01:49:44.695Z,6.30
2019-03-24T01:52:19.797Z,6.30
2019-03-24T01:54:51.237Z,6.40
2019-03-24T01:57:23.686Z,6.40
2019-03-24T01:59:58.512Z,6.50
2019-03-24T02:02:31.754Z,6.50
2019-03-24T02:05:02.179Z,6.50
2019-03-24T02:07:36.191Z,6.50
2019-03-24T02:10:09.963Z,6.50
2019-03-24T02:12:46.832Z,6.40
2019-03-24T02:15:27.541Z,6.40
2019-03-24T02:18:00.379Z,6.30
2019-03-24T02:20:33.464Z,6.30
2019-03-24T02:23:05.308Z,6.40
2019-03-24T02:25:44.426Z,6.40
2019-03-24T02:28:25.515Z,6.40
2019-03-24T02:31:20.486Z,6.30
2019-03-24T02:34:11.061Z,6.20
2019-03-24T02:37:11.046Z,6.20
2019-03-24T02:39:54.123Z,6.20
2019-03-24T02:42:24.400Z,6.30
2019-03-24T02:44:56.423Z,6.40
2019-03-24T02:47:38.367Z,6.50
2019-03-24T02:50:06.087Z,6.60
2019-03-24T02:52:38.237Z,6.70
2019-03-24T02:55:09.259Z,6.80
2019-03-24T02:57:42.047Z,6.70
2019-03-24T03:00:13.895Z,6.70
2019-03-24T03:02:44.808Z,6.70
2019-03-24T03:05:17.139Z,6.80
2019-03-24T03:07:47.410Z,6.70
2019-03-24T03:10:24.002Z,6.80
2019-03-24T03:13:07.036Z,6.90
2019-03-24T03:15:46.112Z,6.90
2019-03-24T03:18:16.811Z,7.00
2019-03-24T03:20:49.018Z,7.00
2019-03-24T03:23:20.553Z,7.00
2019-03-24T03:25:50.763Z,7.00
2019-03-24T03:28:27.295Z,7.00
2019-03-24T03:30:58.809Z,7.00
2019-03-24T03:33:30.361Z,7.10
2019-03-24T03:36:05.561Z,7.10
2019-03-24T03:38:36.263Z,7.00
2019-03-24T03:41:16.604Z,6.90
2019-03-24T03:43:46.628Z,6.90
2019-03-24T03:46:18.688Z,6.80
2019-03-24T03:48:48.903Z,6.80
2019-03-24T03:51:22.172Z,6.70
2019-03-24T03:53:55.454Z,6.70
2019-03-24T03:56:28.458Z,6.80
2019-03-24T03:59:01.516Z,6.90
2019-03-24T04:01:33.068Z,6.90
2019-03-24T04:04:05.123Z,7.00
2019-03-24T04:06:36.963Z,7.00
2019-03-24T04:09:09.379Z,7.00
2019-03-24T04:11:45.065Z,6.90
2019-03-24T04:14:15.361Z,7.00
2019-03-24T04:16:45.913Z,7.10
2019-03-24T04:19:16.139Z,7.10
2019-03-24T04:21:46.434Z,7.00
2019-03-24T04:24:20.518Z,7.20
2019-03-24T04:26:50.719Z,7.20
2019-03-24T04:29:20.970Z,7.20
2019-03-24T04:31:52.505Z,7.30
2019-03-24T04:34:26.779Z,7.30
2019-03-24T04:37:03.269Z,7.20
2019-03-24T04:39:33.563Z,7.20
2019-03-24T04:42:08.499Z,7.20
2019-03-24T04:44:39.903Z,7.20
2019-03-24T04:47:16.511Z,7.20
2019-03-24T04:49:45.757Z,7.30
2019-03-24T04:52:17.279Z,7.40
2019-03-24T04:54:50.346Z,7.40
2019-03-24T04:57:20.503Z,7.40
2019-03-24T04:59:53.838Z,7.50
2019-03-24T05:02:26.925Z,7.50
2019-03-24T05:04:59.642Z,7.50
2019-03-24T05:07:30.152Z,7.50
2019-03-24T05:10:00.463Z,7.60
2019-03-24T05:12:32.635Z,7.60
2019-03-24T05:15:07.727Z,7.60
2019-03-24T05:17:40.866Z,7.60
2019-03-24T05:20:13.767Z,7.60
2019-03-24T05:22:51.988Z,7.60
2019-03-24T05:25:30.765Z,7.60
2019-03-24T05:28:03.268Z,7.60
2019-03-24T05:30:36.390Z,7.50
2019-03-24T05:33:10.363Z,7.60
2019-03-24T05:35:42.812Z,7.60
2019-03-24T05:38:17.781Z,7.60
2019-03-24T05:40:50.201Z,7.40
2019-03-24T05:43:25.165Z,7.30
2019-03-24T05:45:58.071Z,7.20
2019-03-24T05:48:28.987Z,7.10
2019-03-24T05:50:59.672Z,7.10
2019-03-24T05:53:31.792Z,7.00
2019-03-24T05:56:07.606Z,7.00
2019-03-24T05:58:53.519Z,6.90
2019-03-24T06:01:43.067Z,6.90
2019-03-24T06:04:12.136Z,6.90
2019-03-24T06:06:45.533Z,6.90
2019-03-24T06:09:16.678Z,7.00
2019-03-24T06:11:47.225Z,7.10
2019-03-24T06:14:17.434Z,7.20
2019-03-24T06:16:47.650Z,7.30
2019-03-24T06:19:28.542Z,7.40
2019-03-24T06:21:58.465Z,7.40
2019-03-24T06:24:30.167Z,7.50
2019-03-24T06:27:01.686Z,7.50
2019-03-24T06:29:36.340Z,7.60
2019-03-24T06:32:13.466Z,7.50
2019-03-24T06:34:49.149Z,7.50
2019-03-24T06:37:26.484Z,7.40
2019-03-24T06:39:59.252Z,7.40
2019-03-24T06:42:29.427Z,7.30
2019-03-24T06:45:02.305Z,7.30
2019-03-24T06:47:32.426Z,7.30
2019-03-24T06:50:02.928Z,7.40
2019-03-24T06:52:35.345Z,7.50
2019-03-24T06:55:07.347Z,7.60
2019-03-24T06:57:39.097Z,7.70
2019-03-24T07:00:14.525Z,7.70
2019-03-24T07:02:49.023Z,7.80
2019-03-24T07:05:19.324Z,7.80
2019-03-24T07:07:52.705Z,7.90
2019-03-24T07:10:29.852Z,7.90
2019-03-24T07:13:00.037Z,7.90
2019-03-24T07:15:30.359Z,7.80
2019-03-24T07:18:08.635Z,7.90
2019-03-24T07:20:39.839Z,7.90
2019-03-24T07:23:22.980Z,7.80
2019-03-24T07:26:01.272Z,7.80
2019-03-24T07:28:43.515Z,7.80
2019-03-24T07:31:20.800Z,7.70
2019-03-24T07:33:52.398Z,7.70
2019-03-24T07:36:26.176Z,7.70
2019-03-24T07:38:56.511Z,7.60
2019-03-24T07:41:28.041Z,7.60
2019-03-24T07:43:58.289Z,7.60
2019-03-24T07:46:28.750Z,7.60
2019-03-24T07:49:09.407Z,7.70
2019-03-24T07:51:37.175Z,7.80
2019-03-24T07:54:11.394Z,8.00
2019-03-24T07:56:42.887Z,8.00
2019-03-24T07:59:13.122Z,8.10
2019-03-24T08:01:43.403Z,8.20
2019-03-24T08:04:13.775Z,8.30
2019-03-24T08:06:44.023Z,8.30
2019-03-24T08:09:14.666Z,8.40
2019-03-24T08:11:49.472Z,8.30
2019-03-24T08:14:19.883Z,8.40
2019-03-24T08:16:51.230Z,8.50
2019-03-24T08:19:24.330Z,8.50
2019-03-24T08:21:54.852Z,8.50
2019-03-24T08:24:25.228Z,8.40
2019-03-24T08:27:02.764Z,8.30
2019-03-24T08:29:33.410Z,8.30
2019-03-24T08:32:06.721Z,8.30
2019-03-24T08:34:40.310Z,8.30
2019-03-24T08:37:12.161Z,8.30
2019-03-24T08:39:43.927Z,8.40
2019-03-24T08:42:15.880Z,8.60
2019-03-24T08:44:46.339Z,8.70
2019-03-24T08:47:19.593Z,8.90
2019-03-24T08:49:52.657Z,9.00
2019-03-24T08:52:25.643Z,9.10
2019-03-24T08:55:03.441Z,9.20
2019-03-24T08:57:52.345Z,9.30
2019-03-24T09:00:30.968Z,9.40
2019-03-24T09:02:59.974Z,9.50
2019-03-24T09:05:35.440Z,9.60
2019-03-24T09:08:05.801Z,9.70
2019-03-24T09:10:38.926Z,9.70
2019-03-24T09:16:19.692Z,9.80
2019-03-24T09:18:52.892Z,10.10
2019-03-24T09:21:23.150Z,10.30
2019-03-24T09:24:00.656Z,10.40
2019-03-24T09:26:35.076Z,10.60
2019-03-24T09:29:07.389Z,10.60
2019-03-24T09:31:39.791Z,10.80
2019-03-24T09:34:13.063Z,10.70
2019-03-24T09:36:43.417Z,10.50
2019-03-24T09:39:13.871Z,10.40
2019-03-24T09:41:47.194Z,10.40
2019-03-24T09:44:21.106Z,10.20
2019-03-24T09:46:51.529Z,9.90
2019-03-24T09:49:31.940Z,9.50
2019-03-24T09:52:01.965Z,9.20
2019-03-24T09:54:32.661Z,9.00
2019-03-24T09:57:04.471Z,8.90
2019-03-24T09:59:36.260Z,9.00
2019-03-24T10:02:06.509Z,9.10
2019-03-24T10:04:38.835Z,9.10
2019-03-24T10:07:11.758Z,9.20
2019-03-24T10:09:42.252Z,9.20
2019-03-24T10:12:12.601Z,9.20
2019-03-24T10:14:43.155Z,9.10
2019-03-24T10:17:13.406Z,9.10
2019-03-24T10:19:45.945Z,9.10
2019-03-24T10:22:17.480Z,9.20
2019-03-24T10:24:47.884Z,9.20
2019-03-24T10:27:19.675Z,9.20
2019-03-24T10:30:00.118Z,9.30
2019-03-24T10:32:30.721Z,9.30
2019-03-24T10:35:01.255Z,9.20
2019-03-24T10:37:32.966Z,9.40
2019-03-24T10:40:05.359Z,9.30
2019-03-24T10:42:37.622Z,9.40
2019-03-24T10:45:09.860Z,9.40
2019-03-24T10:47:40.306Z,9.30
2019-03-24T10:50:14.251Z,9.30
2019-03-24T10:52:44.671Z,9.30
2019-03-24T10:55:20.238Z,9.20
2019-03-24T10:57:50.686Z,9.20
2019-03-24T11:00:48.645Z,9.00
2019-03-24T11:03:26.175Z,9.00
2019-03-24T11:05:58.025Z,9.00
2019-03-24T11:08:28.826Z,9.10
2019-03-24T11:10:59.172Z,9.10
2019-03-24T11:13:31.211Z,9.20
2019-03-24T11:16:07.745Z,9.30
2019-03-24T11:18:50.421Z,9.30
2019-03-24T11:21:20.995Z,9.40
2019-03-24T11:23:51.414Z,9.60
2019-03-24T11:26:22.146Z,9.70
2019-03-24T11:28:52.556Z,9.90
2019-03-24T11:31:24.379Z,9.90
2019-03-24T11:33:58.560Z,10.00
2019-03-24T11:36:35.724Z,10.30
2019-03-24T11:39:11.789Z,10.60
2019-03-24T11:41:45.047Z,10.80
2019-03-24T11:44:23.488Z,11.40
2019-03-24T11:46:58.686Z,12.10
2019-03-24T11:49:31.309Z,12.70
2019-03-24T11:52:03.049Z,13.10
2019-03-24T11:54:35.825Z,13.30
2019-03-24T11:57:06.129Z,13.50
2019-03-24T11:59:36.571Z,13.50
2019-03-24T12:02:09.302Z,13.80
2019-03-24T12:04:39.571Z,13.70
2019-03-24T12:07:12.682Z,14.40
2019-03-24T12:09:46.700Z,14.80
2019-03-24T12:12:17.201Z,15.20
2019-03-24T12:14:47.614Z,15.60
2019-03-24T12:17:18.011Z,16.20
2019-03-24T12:19:56.392Z,16.50
2019-03-24T12:22:21.953Z,17.20
2019-03-24T12:24:52.656Z,17.10
2019-03-24T12:27:23.492Z,17.80
2019-03-24T12:29:55.242Z,16.90
2019-03-24T12:32:25.704Z,16.50
2019-03-24T12:34:57.427Z,16.00
2019-03-24T12:37:29.797Z,16.10
2019-03-24T12:39:59.880Z,16.10
2019-03-24T12:42:39.207Z,17.60
2019-03-24T12:45:33.595Z,19.30
2019-03-24T12:48:09.581Z,20.10
2019-03-24T12:50:39.890Z,18.20
2019-03-24T12:53:10.406Z,18.20
2019-03-24T12:55:40.754Z,18.70
2019-03-24T12:58:14.402Z,20.10
2019-03-24T13:00:48.960Z,21.70
2019-03-24T13:03:26.909Z,21.10
2019-03-24T13:05:59.136Z,19.80
2019-03-24T13:08:33.961Z,20.60
2019-03-24T13:11:10.747Z,20.70
2019-03-24T13:13:41.576Z,20.50
2019-03-24T13:16:13.684Z,20.30
2019-03-24T13:18:44.275Z,18.70
2019-03-24T13:21:18.545Z,17.80
2019-03-24T13:23:53.328Z,18.10
2019-03-24T13:26:23.907Z,18.20
2019-03-24T13:29:04.365Z,17.40
2019-03-24T13:31:37.618Z,17.00
2019-03-24T13:34:12.304Z,17.50
2019-03-24T13:36:44.330Z,18.50
2019-03-24T13:39:17.173Z,18.30
2019-03-24T13:41:51.650Z,18.80
2019-03-24T13:44:21.919Z,18.50
2019-03-24T13:46:52.334Z,18.50
2019-03-24T13:49:22.776Z,18.30
2019-03-24T13:51:53.371Z,18.50
2019-03-24T13:54:23.642Z,17.60
2019-03-24T13:56:54.042Z,16.70
2019-03-24T13:59:24.328Z,16.10
2019-03-24T14:01:54.479Z,15.70
2019-03-24T14:04:25.066Z,15.90
2019-03-24T14:06:55.403Z,16.00
2019-03-24T14:09:25.722Z,16.10
2019-03-24T14:11:56.124Z,16.10
2019-03-24T14:14:26.626Z,16.00
2019-03-24T14:16:57.192Z,16.50
2019-03-24T14:19:27.551Z,16.40
2019-03-24T14:21:58.344Z,16.00
2019-03-24T14:24:29.534Z,16.20
2019-03-24T14:26:59.916Z,16.70
2019-03-24T14:29:30.156Z,16.60
2019-03-24T14:32:00.648Z,16.70
2019-03-24T14:34:31.056Z,16.70
2019-03-24T14:37:01.449Z,16.70
2019-03-24T14:39:32.016Z,15.80
2019-03-24T14:42:02.372Z,14.50
2019-03-24T14:44:32.941Z,14.30
2019-03-24T14:47:03.329Z,14.40
2019-03-24T14:49:33.679Z,14.50
2019-03-24T14:52:05.435Z,14.80
2019-03-24T14:54:35.722Z,14.80
2019-03-24T14:57:06.213Z,15.00
2019-03-24T14:59:36.635Z,15.50
2019-03-24T15:02:07.847Z,16.20
2019-03-24T15:04:39.553Z,15.30
2019-03-24T15:07:13.621Z,14.60
2019-03-24T15:09:47.152Z,14.70
2019-03-24T15:12:17.620Z,14.00
2019-03-24T15:14:48.218Z,14.60
2019-03-24T15:17:18.691Z,15.40
2019-03-24T15:19:49.247Z,15.80
2019-03-24T15:22:19.906Z,15.40
2019-03-24T15:24:50.827Z,14.80
2019-03-24T15:27:21.248Z,14.60
2019-03-24T15:29:51.835Z,14.50
2019-03-24T15:32:22.467Z,14.80
2019-03-24T15:34:53.250Z,15.30
2019-03-24T15:37:23.696Z,15.90
2019-03-24T15:39:54.072Z,15.80
2019-03-24T15:42:24.683Z,15.50
2019-03-24T15:44:55.087Z,15.50
2019-03-24T15:47:25.554Z,15.60
2019-03-24T15:49:56.189Z,16.30
2019-03-24T15:52:26.626Z,16.70
2019-03-24T15:54:57.208Z,16.60
2019-03-24T15:57:27.659Z,17.20
2019-03-24T15:59:58.239Z,17.50
2019-03-24T16:02:28.975Z,17.80
2019-03-24T16:04:59.531Z,17.80
2019-03-24T16:07:30.143Z,16.70
2019-03-24T16:10:00.599Z,15.50
2019-03-24T16:12:31.103Z,15.10
2019-03-24T16:15:01.606Z,14.70
2019-03-24T16:17:32.176Z,14.40
2019-03-24T16:20:02.614Z,13.80
2019-03-24T16:22:33.036Z,13.40
2019-03-24T16:25:03.546Z,12.90
2019-03-24T16:27:35.094Z,12.90
2019-03-24T16:30:06.278Z,13.10
2019-03-24T16:32:36.725Z,12.90
2019-03-24T16:35:07.743Z,13.10
2019-03-24T16:37:38.353Z,13.00
2019-03-24T16:40:09.425Z,12.90
2019-03-24T16:42:39.955Z,12.90
2019-03-24T16:45:12.881Z,12.80
2019-03-24T16:47:43.488Z,12.60
2019-03-24T16:50:14.489Z,12.40
2019-03-24T16:52:45.155Z,12.00
2019-03-24T16:55:15.678Z,12.00
2019-03-24T16:57:46.104Z,12.00
2019-03-24T17:00:17.569Z,12.00
2019-03-24T17:02:48.295Z,12.00
2019-03-24T17:05:19.087Z,12.00
2019-03-24T17:07:49.677Z,12.10
2019-03-24T17:10:20.193Z,12.10
2019-03-24T17:12:50.848Z,12.20
2019-03-24T17:15:21.543Z,11.90
2019-03-24T17:17:52.003Z,11.90
2019-03-24T17:20:22.779Z,11.80
2019-03-24T17:22:53.418Z,11.80
2019-03-24T17:25:23.945Z,11.70
2019-03-24T17:27:55.307Z,11.60
2019-03-24T17:30:25.817Z,11.40
2019-03-24T17:32:56.349Z,11.40
2019-03-24T17:35:29.139Z,11.30
2019-03-24T17:37:59.650Z,11.10
2019-03-24T17:40:30.140Z,11.00
2019-03-24T17:43:01.059Z,10.90
2019-03-24T17:45:33.693Z,10.80
2019-03-24T17:48:04.159Z,10.70
2019-03-24T17:50:35.079Z,10.70
2019-03-24T17:53:06.981Z,10.60
2019-03-24T17:55:37.676Z,10.60
2019-03-24T17:58:08.561Z,10.50
2019-03-24T18:00:42.168Z,10.50
2019-03-24T18:03:13.122Z,10.40
2019-03-24T18:05:43.681Z,10.30
2019-03-24T18:08:14.144Z,10.30
2019-03-24T18:10:45.478Z,10.30
2019-03-24T18:13:18.529Z,10.10
2019-03-24T18:15:49.162Z,10.10
2019-03-24T18:18:19.723Z,10.00
2019-03-24T18:20:50.302Z,9.90
2019-03-24T18:23:21.058Z,9.80
2019-03-24T18:25:51.557Z,9.80
2019-03-24T18:28:22.286Z,9.70
2019-03-24T18:30:52.890Z,9.70
2019-03-24T18:33:23.453Z,9.60
2019-03-24T18:35:54.460Z,9.50
2019-03-24T18:38:25.316Z,9.50
2019-03-24T18:40:55.864Z,9.40
2019-03-24T18:43:26.793Z,9.30
2019-03-24T18:45:57.335Z,9.30
2019-03-24T18:48:27.819Z,9.20
2019-03-24T18:50:58.925Z,9.10
2019-03-24T18:53:29.457Z,9.00
2019-03-24T18:56:01.879Z,9.00
2019-03-24T18:58:32.935Z,9.00
2019-03-24T19:01:03.653Z,8.90
2019-03-24T19:03:34.111Z,8.80
2019-03-24T19:06:04.855Z,8.80
2019-03-24T19:08:35.341Z,8.70
2019-03-24T19:11:05.971Z,8.70
2019-03-24T19:13:36.813Z,8.60
2019-03-24T19:16:07.380Z,8.60
2019-03-24T19:18:37.867Z,8.60
2019-03-24T19:21:08.431Z,8.50
2019-03-24T19:23:39.113Z,8.60
2019-03-24T19:26:10.788Z,8.50
2019-03-24T19:28:41.333Z,8.50
2019-03-24T19:31:11.885Z,8.50
2019-03-24T19:33:42.646Z,8.40
2019-03-24T19:36:13.101Z,8.40
2019-03-24T19:38:44.652Z,8.40
2019-03-24T19:41:15.221Z,8.30
2019-03-24T19:43:45.690Z,8.20
2019-03-24T19:46:16.651Z,8.20
2019-03-24T19:48:47.271Z,8.10
2019-03-24T19:51:17.922Z,8.10
2019-03-24T19:53:48.578Z,8.00
2019-03-24T19:56:19.193Z,8.00
2019-03-24T19:58:49.567Z,8.00
2019-03-24T20:01:20.074Z,8.00
2019-03-24T20:03:50.557Z,8.00
2019-03-24T20:06:21.356Z,7.90
2019-03-24T20:08:52.534Z,7.90
2019-03-24T20:11:23.166Z,7.80
2019-03-24T20:13:53.757Z,7.80
2019-03-24T20:16:24.211Z,7.80
2019-03-24T20:18:54.778Z,7.80
2019-03-24T20:21:25.292Z,7.70
2019-03-24T20:23:56.081Z,7.70
2019-03-24T20:26:26.586Z,7.60
2019-03-24T20:28:57.067Z,7.60
2019-03-24T20:31:28.631Z,7.60
2019-03-24T20:33:59.099Z,7.60
2019-03-24T20:36:29.746Z,7.50
2019-03-24T20:39:00.221Z,7.50
2019-03-24T20:41:30.744Z,7.50
2019-03-24T20:44:01.304Z,7.40
2019-03-24T20:46:33.038Z,7.40
2019-03-24T20:49:09.274Z,7.40
2019-03-24T20:51:39.858Z,7.40
2019-03-24T20:54:10.756Z,7.40
2019-03-24T20:56:41.785Z,7.40
2019-03-24T20:59:12.181Z,7.40
2019-03-24T21:01:42.785Z,7.40
2019-03-24T21:04:13.232Z,7.30
2019-03-24T21:06:43.817Z,7.30
2019-03-24T21:09:14.966Z,7.20
2019-03-24T21:11:45.427Z,7.20
2019-03-24T21:14:16.004Z,7.10
2019-03-24T21:16:46.456Z,7.10
2019-03-24T21:19:17.078Z,7.10
2019-03-24T21:21:47.481Z,7.10
2019-03-24T21:24:17.934Z,7.00
2019-03-24T21:26:48.301Z,7.00
2019-03-24T21:29:18.792Z,7.00
2019-03-24T21:31:50.097Z,6.90
2019-03-24T21:34:20.614Z,6.90
2019-03-24T21:36:51.163Z,6.90
2019-03-24T21:39:21.800Z,6.90
2019-03-24T21:41:52.171Z,6.80
2019-03-24T21:44:22.742Z,6.80
2019-03-24T21:46:53.241Z,6.70
2019-03-24T21:49:23.851Z,6.70
2019-03-24T21:51:54.327Z,6.70
2019-03-24T21:54:24.817Z,6.70
2019-03-24T21:56:55.251Z,6.70
2019-03-24T21:59:25.687Z,6.60
2019-03-24T22:01:55.993Z,6.60
2019-03-24T22:04:26.481Z,6.50
2019-03-24T22:06:56.589Z,6.50
2019-03-24T22:09:26.776Z,6.40
2019-03-24T22:11:56.977Z,6.40
2019-03-24T22:14:27.273Z,6.40
2019-03-24T22:16:57.494Z,6.30
2019-03-24T22:19:27.524Z,6.30
2019-03-24T22:21:57.638Z,6.30
2019-03-24T22:24:27.707Z,6.30
2019-03-24T22:26:58.058Z,6.20
2019-03-24T22:29:28.404Z,6.20
2019-03-24T22:31:58.676Z,6.20
2019-03-24T22:34:28.806Z,6.20
2019-03-24T22:36:58.988Z,6.20
2019-03-24T22:39:29.444Z,6.10
2019-03-24T22:41:59.573Z,6.10
2019-03-24T22:44:29.603Z,6.10
2019-03-24T22:46:59.677Z,6.00
2019-03-24T22:49:30.945Z,6.00
2019-03-24T22:52:07.112Z,5.90
2019-03-24T22:54:32.801Z,5.90
2019-03-24T22:57:02.882Z,5.90
2019-03-24T22:59:33.119Z,5.90
2019-03-24T23:02:03.515Z,5.90
2019-03-24T23:04:33.631Z,5.80
2019-03-24T23:07:03.712Z,5.70
2019-03-24T23:09:33.946Z,5.70
2019-03-24T23:12:04.679Z,5.60
2019-03-24T23:14:34.810Z,5.50
2019-03-24T23:17:05.014Z,5.40
2019-03-24T23:19:35.178Z,5.30
2019-03-24T23:22:05.899Z,5.30
2019-03-24T23:24:36.025Z,5.20
2019-03-24T23:27:06.096Z,5.10
2019-03-24T23:29:36.237Z,5.10
2019-03-24T23:32:06.356Z,5.10
2019-03-24T23:34:36.469Z,5.10
2019-03-24T23:37:06.837Z,5.10
2019-03-24T23:39:36.925Z,5.00
2019-03-24T23:42:07.026Z,5.00
2019-03-24T23:44:37.121Z,5.00
2019-03-24T23:47:07.301Z,5.00
2019-03-24T23:49:37.750Z,5.00
2019-03-24T23:52:07.951Z,5.10
2019-03-24T23:54:38.375Z,5.10
2019-03-24T23:57:08.794Z,5.10
2019-03-24T23:59:38.899Z,5.10
